Time;durP1;ratioP1;P1;durP2;ratioP2;P2;SDS_P1;SDS_P2;PMS_P1;PMS_P2;Temp;Humidity;BMP_temperature;BMP_pressure;BME280_temperature;BME280_humidity;BME280_pressure;Samples;Min_cycle;Max_cycle;Signal;HPM_P1;HPM_P2
2022/08/30 00:02:14;;;;;;;8.25;5.38;;;17.70;99.90;;;;;;5067668;28;20338;-68
2022/08/30 00:04:41;;;;;;;5.55;4.70;;;17.70;99.90;;;;;;5070938;28;20236;-68
2022/08/30 00:07:07;;;;;;;11.27;5.50;;;17.70;99.90;;;;;;5070380;28;20632;-69
2022/08/30 00:09:36;;;;;;;8.23;5.07;;;17.70;99.90;;;;;;5072183;28;20208;-68
2022/08/30 00:12:04;;;;;;;9.30;5.53;;;17.70;99.90;;;;;;5069967;28;20213;-69
2022/08/30 00:14:30;;;;;;;7.57;5.50;;;17.70;99.90;;;;;;5071379;28;20225;-68
2022/08/30 00:16:57;;;;;;;6.30;5.28;;;17.60;99.90;;;;;;5067749;28;20216;-69
2022/08/30 00:19:25;;;;;;;6.70;4.82;;;17.70;99.90;;;;;;5071766;28;20684;-68
2022/08/30 00:21:52;;;;;;;6.53;4.97;;;17.60;99.90;;;;;;5069443;28;20220;-68
2022/08/30 00:24:19;;;;;;;7.47;5.50;;;17.70;99.90;;;;;;5071933;28;20205;-68
2022/08/30 00:26:45;;;;;;;6.43;5.20;;;17.60;99.90;;;;;;5067376;28;20311;-68
2022/08/30 00:29:12;;;;;;;6.20;5.60;;;17.60;99.90;;;;;;5070522;28;20216;-68
2022/08/30 00:31:39;;;;;;;9.98;5.72;;;17.60;99.90;;;;;;5067374;28;20209;-67
2022/08/30 00:34:06;;;;;;;8.30;5.25;;;17.60;99.90;;;;;;5069947;28;20213;-67
2022/08/30 00:36:36;;;;;;;6.47;4.90;;;17.60;99.90;;;;;;5068571;28;20229;-68
2022/08/30 00:39:03;;;;;;;5.80;4.97;;;17.60;99.90;;;;;;5071498;28;20657;-67
2022/08/30 00:41:30;;;;;;;14.73;5.47;;;17.50;99.90;;;;;;5068732;28;20212;-67
2022/08/30 00:43:57;;;;;;;6.60;5.50;;;17.50;99.90;;;;;;5070312;28;20610;-67
2022/08/30 00:46:23;;;;;;;8.43;5.80;;;17.50;99.90;;;;;;5068496;28;20198;-69
2022/08/30 00:48:51;;;;;;;8.20;5.07;;;17.40;99.90;;;;;;5071565;28;20666;-69
2022/08/30 00:51:20;;;;;;;7.32;5.15;;;17.40;99.90;;;;;;5068133;28;20703;-69
2022/08/30 00:53:52;;;;;;;8.10;5.70;;;17.40;99.90;;;;;;5068935;28;20233;-69
2022/08/30 00:56:19;;;;;;;7.10;5.03;;;17.40;99.90;;;;;;5069725;28;20846;-68
2022/08/30 00:58:55;;;;;;;8.82;5.45;;;17.40;99.90;;;;;;5070903;28;20216;-68
2022/08/30 01:01:22;;;;;;;9.00;5.75;;;17.30;99.90;;;;;;5067048;28;20204;-68
2022/08/30 01:03:50;;;;;;;10.07;5.63;;;17.30;99.90;;;;;;5068732;28;20228;-68
2022/08/30 01:06:17;;;;;;;7.40;4.93;;;17.40;99.90;;;;;;5068564;28;20300;-69
2022/08/30 01:08:46;;;;;;;6.95;5.30;;;17.30;99.90;;;;;;5069491;28;20197;-69
2022/08/30 01:11:19;;;;;;;8.25;5.25;;;17.30;99.90;;;;;;5068312;28;20213;-68
2022/08/30 01:13:47;;;;;;;6.40;5.38;;;17.30;99.90;;;;;;5069591;28;20205;-68
2022/08/30 01:16:14;;;;;;;8.93;5.47;;;17.30;99.90;;;;;;5066293;28;20291;-68
2022/08/30 01:18:41;;;;;;;7.50;5.53;;;17.20;99.90;;;;;;5070675;28;20209;-69
2022/08/30 01:21:16;;;;;;;10.18;5.80;;;17.20;99.90;;;;;;5069109;28;20224;-68
2022/08/30 01:23:47;;;;;;;7.15;5.22;;;17.20;99.90;;;;;;5069410;28;20321;-68
2022/08/30 01:26:16;;;;;;;9.15;5.85;;;17.20;99.90;;;;;;5063732;28;20203;-68
2022/08/30 01:28:46;;;;;;;7.35;6.13;;;17.20;99.90;;;;;;5070830;28;20576;-67
2022/08/30 01:31:13;;;;;;;8.07;6.55;;;17.20;99.90;;;;;;5066454;28;20202;-68
2022/08/30 01:33:40;;;;;;;8.25;5.40;;;17.20;99.90;;;;;;5070033;28;20202;-69
2022/08/30 01:36:11;;;;;;;8.70;5.43;;;17.20;99.90;;;;;;5067891;28;20233;-68
2022/08/30 01:38:42;;;;;;;7.70;5.45;;;17.20;99.90;;;;;;5067718;28;20216;-69
2022/08/30 01:41:14;;;;;;;7.43;5.57;;;17.20;99.90;;;;;;5068271;28;20213;-68
2022/08/30 01:43:41;;;;;;;6.38;5.10;;;17.20;99.90;;;;;;5069444;28;20201;-68
2022/08/30 01:46:10;;;;;;;7.18;5.70;;;17.20;99.90;;;;;;5065258;28;20368;-68
2022/08/30 01:48:38;;;;;;;8.15;5.55;;;17.20;99.90;;;;;;5069935;28;20201;-68
2022/08/30 01:51:06;;;;;;;8.25;5.47;;;17.20;99.90;;;;;;5068620;28;20209;-68
2022/08/30 01:53:33;;;;;;;7.95;5.80;;;17.20;99.90;;;;;;5070031;28;20209;-67
2022/08/30 01:56:00;;;;;;;6.97;5.72;;;17.10;99.90;;;;;;5068271;28;20288;-68
2022/08/30 01:58:28;;;;;;;8.75;6.10;;;17.10;99.90;;;;;;5069914;28;20212;-68
2022/08/30 02:00:55;;;;;;;9.00;6.22;;;17.10;99.90;;;;;;5066123;28;20301;-67
2022/08/30 02:03:22;;;;;;;7.65;6.07;;;17.10;99.90;;;;;;5069668;28;20209;-68
2022/08/30 02:05:49;;;;;;;8.90;5.80;;;17.10;99.90;;;;;;5067099;28;20610;-69
2022/08/30 02:08:16;;;;;;;7.65;5.53;;;17.10;99.90;;;;;;5070135;28;20304;-68
2022/08/30 02:10:43;;;;;;;7.28;5.47;;;17.10;99.90;;;;;;5068600;28;20205;-69
2022/08/30 02:13:10;;;;;;;8.30;6.25;;;17.10;99.90;;;;;;5067783;28;20292;-69
2022/08/30 02:15:38;;;;;;;9.50;6.82;;;17.10;99.90;;;;;;5067729;28;20229;-68
2022/08/30 02:18:05;;;;;;;6.78;5.55;;;17.10;99.90;;;;;;5068867;28;20202;-67
2022/08/30 02:20:31;;;;;;;8.57;5.83;;;17.10;99.90;;;;;;5068751;28;20209;-67
2022/08/30 02:22:58;;;;;;;6.43;5.82;;;17.10;99.90;;;;;;5068041;28;20232;-68
2022/08/30 02:25:25;;;;;;;11.25;6.97;;;17.00;99.90;;;;;;5068253;28;20212;-68
2022/08/30 02:27:52;;;;;;;7.97;6.05;;;17.00;99.90;;;;;;5068430;28;20214;-69
2022/08/30 02:30:18;;;;;;;10.15;6.07;;;17.00;99.90;;;;;;5069567;28;20205;-69
2022/08/30 02:32:47;;;;;;;10.45;6.93;;;17.00;99.90;;;;;;5067829;28;20201;-69
2022/08/30 02:35:14;;;;;;;8.70;6.43;;;17.00;99.90;;;;;;5066826;28;20723;-69
2022/08/30 02:37:40;;;;;;;8.03;6.37;;;17.00;99.90;;;;;;5069262;28;20232;-69
2022/08/30 02:40:08;;;;;;;9.48;6.82;;;17.00;99.90;;;;;;5067839;28;20217;-69
2022/08/30 02:42:35;;;;;;;6.63;5.78;;;17.00;99.90;;;;;;5066531;28;20299;-68
2022/08/30 02:45:02;;;;;;;8.07;6.13;;;16.90;99.90;;;;;;5068505;28;20209;-68
2022/08/30 02:47:29;;;;;;;7.45;6.13;;;16.90;99.90;;;;;;5068139;28;20205;-69
2022/08/30 02:49:57;;;;;;;7.20;6.38;;;16.90;99.90;;;;;;5066607;28;20697;-69
2022/08/30 02:52:24;;;;;;;8.10;6.35;;;16.90;99.90;;;;;;5060127;28;20205;-68
2022/08/30 02:54:50;;;;;;;8.68;5.90;;;16.90;99.90;;;;;;5068793;28;20213;-68
2022/08/30 02:57:17;;;;;;;10.98;6.75;;;16.80;99.90;;;;;;5066890;28;20233;-68
2022/08/30 02:59:44;;;;;;;11.73;6.80;;;16.80;99.90;;;;;;5064716;28;20673;-69
2022/08/30 03:02:12;;;;;;;10.13;6.90;;;16.80;99.90;;;;;;5065728;28;20236;-68
2022/08/30 03:04:39;;;;;;;9.35;6.70;;;16.80;99.90;;;;;;5067292;28;20205;-69
2022/08/30 03:07:08;;;;;;;9.20;7.03;;;16.70;99.90;;;;;;5066435;28;20267;-69
2022/08/30 03:09:35;;;;;;;8.27;6.90;;;16.70;99.90;;;;;;5064294;28;20681;-68
2022/08/30 03:12:01;;;;;;;11.57;7.22;;;16.70;99.90;;;;;;5066556;28;20236;-69
2022/08/30 03:14:28;;;;;;;7.18;6.47;;;16.70;99.90;;;;;;5068087;28;20209;-68
2022/08/30 03:16:55;;;;;;;7.60;6.80;;;16.60;99.90;;;;;;5068262;28;20228;-68
2022/08/30 03:19:22;;;;;;;9.87;6.63;;;16.60;99.90;;;;;;5068576;28;20200;-69
2022/08/30 03:21:49;;;;;;;8.20;6.72;;;16.60;99.90;;;;;;5066640;28;20746;-68
2022/08/30 03:24:18;;;;;;;9.47;6.47;;;16.60;99.90;;;;;;5066610;28;20209;-69
2022/08/30 03:26:44;;;;;;;8.27;7.37;;;16.60;99.90;;;;;;5068182;28;20220;-68
2022/08/30 03:29:11;;;;;;;10.20;6.90;;;16.60;99.90;;;;;;5070471;28;20543;-69
2022/08/30 03:31:38;;;;;;;7.63;6.70;;;16.50;99.90;;;;;;5067092;28;20670;-68
2022/08/30 03:34:05;;;;;;;9.73;6.90;;;16.60;99.90;;;;;;5064996;28;20282;-68
2022/08/30 03:36:32;;;;;;;8.98;6.88;;;16.60;99.90;;;;;;5067326;28;20244;-69
2022/08/30 03:38:59;;;;;;;12.10;6.73;;;16.60;99.90;;;;;;5070076;28;20209;-69
2022/08/30 03:41:27;;;;;;;7.63;6.82;;;16.60;99.90;;;;;;5065310;28;20220;-69
2022/08/30 03:43:54;;;;;;;8.20;7.07;;;16.60;99.90;;;;;;5069274;28;20232;-69
2022/08/30 03:46:21;;;;;;;6.95;6.28;;;16.60;99.90;;;;;;5066910;28;20224;-69
2022/08/30 03:48:48;;;;;;;7.95;7.15;;;16.60;99.90;;;;;;5069545;28;20206;-69
2022/08/30 03:51:14;;;;;;;7.38;6.43;;;16.50;99.90;;;;;;5066806;28;20394;-69
2022/08/30 03:53:41;;;;;;;8.90;6.82;;;16.50;99.90;;;;;;5069524;28;20665;-68
2022/08/30 03:56:08;;;;;;;7.85;7.07;;;16.60;99.90;;;;;;5067352;28;20226;-69
2022/08/30 03:58:36;;;;;;;9.73;6.73;;;16.60;99.90;;;;;;5068999;28;20210;-69
2022/08/30 04:01:03;;;;;;;8.07;6.73;;;16.60;99.90;;;;;;5067564;28;20205;-69
2022/08/30 04:03:30;;;;;;;8.57;7.63;;;16.60;99.90;;;;;;5065876;28;20620;-68
2022/08/30 04:05:57;;;;;;;9.10;7.35;;;16.50;99.90;;;;;;5071912;28;20549;-69
2022/08/30 04:08:24;;;;;;;10.02;6.95;;;16.50;99.90;;;;;;5072527;28;20220;-70
2022/08/30 04:10:52;;;;;;;9.50;7.20;;;16.50;99.90;;;;;;5071685;28;20283;-69
2022/08/30 04:13:19;;;;;;;9.63;6.90;;;16.60;99.90;;;;;;5070695;28;20205;-69
2022/08/30 04:15:47;;;;;;;8.55;7.22;;;16.60;99.90;;;;;;5069909;28;20256;-68
2022/08/30 04:18:14;;;;;;;9.60;7.00;;;16.60;99.90;;;;;;5072579;28;20209;-69
2022/08/30 04:20:41;;;;;;;10.25;7.68;;;16.60;99.90;;;;;;5072046;28;20205;-69
2022/08/30 04:23:08;;;;;;;9.25;7.40;;;16.60;99.90;;;;;;5070465;28;20399;-69
2022/08/30 04:25:35;;;;;;;8.77;6.97;;;16.60;99.90;;;;;;5065838;28;20205;-69
2022/08/30 04:28:02;;;;;;;9.07;7.05;;;16.50;99.90;;;;;;5070998;28;20358;-69
2022/08/30 04:30:28;;;;;;;12.02;7.18;;;16.60;99.90;;;;;;5071718;28;20213;-70
2022/08/30 04:32:57;;;;;;;12.90;8.07;;;16.70;99.90;;;;;;5071089;28;20201;-70
2022/08/30 04:35:24;;;;;;;8.57;7.00;;;16.70;99.90;;;;;;5069547;28;20241;-68
2022/08/30 04:37:51;;;;;;;10.50;6.93;;;16.70;99.90;;;;;;5071828;28;20685;-70
2022/08/30 04:40:19;;;;;;;8.75;6.72;;;16.80;99.90;;;;;;5071375;28;20224;-69
2022/08/30 04:42:46;;;;;;;10.57;6.47;;;16.80;99.90;;;;;;5071858;28;20237;-70
2022/08/30 04:45:15;;;;;;;8.15;6.55;;;16.80;99.90;;;;;;5070266;28;20720;-68
2022/08/30 04:47:43;;;;;;;6.82;6.13;;;16.80;99.90;;;;;;5073476;28;20622;-70
2022/08/30 04:50:13;;;;;;;7.38;6.35;;;16.80;99.90;;;;;;5070445;28;21228;-69
2022/08/30 04:52:40;;;;;;;6.60;5.95;;;16.80;99.90;;;;;;5072021;28;20261;-69
2022/08/30 04:55:10;;;;;;;7.07;6.28;;;17.00;99.90;;;;;;5069703;28;20197;-69
2022/08/30 04:57:39;;;;;;;7.55;6.65;;;16.90;99.90;;;;;;5072172;28;20237;-69
2022/08/30 05:00:09;;;;;;;6.13;5.53;;;16.90;99.90;;;;;;5063926;28;20225;-68
2022/08/30 05:02:35;;;;;;;7.22;5.70;;;16.90;99.90;;;;;;5071857;28;20786;-69
2022/08/30 05:07:48;;;;;;;8.52;5.18;;;16.90;99.90;;;;;;5064004;28;20755;-69
2022/08/30 05:10:15;;;;;;;6.45;5.55;;;17.00;99.90;;;;;;5070980;28;20209;-69
2022/08/30 05:12:42;;;;;;;9.02;5.07;;;17.00;99.90;;;;;;5068776;28;20201;-69
2022/08/30 05:15:10;;;;;;;7.60;5.22;;;17.00;99.90;;;;;;5064761;28;20254;-69
2022/08/30 05:17:38;;;;;;;6.97;4.47;;;17.10;99.90;;;;;;5069747;28;20481;-70
2022/08/30 05:20:05;;;;;;;6.40;5.45;;;17.10;99.90;;;;;;5063365;28;20214;-69
2022/08/30 05:22:32;;;;;;;8.38;5.18;;;17.10;99.90;;;;;;5071174;28;20699;-68
2022/08/30 05:25:00;;;;;;;7.10;5.05;;;17.10;99.90;;;;;;5070324;28;20230;-68
2022/08/30 05:27:27;;;;;;;7.05;4.68;;;17.20;99.90;;;;;;5068555;28;20209;-69
2022/08/30 05:29:55;;;;;;;5.97;4.68;;;17.20;99.90;;;;;;5070315;28;20213;-71
2022/08/30 05:32:22;;;;;;;5.00;4.50;;;17.20;99.90;;;;;;5070258;28;20211;-69
2022/08/30 05:34:49;;;;;;;5.85;4.70;;;17.30;99.90;;;;;;5068715;28;20220;-70
2022/08/30 05:37:16;;;;;;;7.65;4.78;;;17.40;99.90;;;;;;5072466;28;20229;-71
2022/08/30 05:39:43;;;;;;;5.18;4.43;;;17.40;99.90;;;;;;5069141;28;20217;-70
2022/08/30 05:42:11;;;;;;;4.78;4.20;;;17.50;99.90;;;;;;5070461;28;20201;-70
2022/08/30 05:44:38;;;;;;;4.88;4.47;;;17.50;99.90;;;;;;5069494;28;20602;-70
2022/08/30 05:47:05;;;;;;;7.57;4.70;;;17.50;99.90;;;;;;5055907;28;20648;-71
2022/08/30 05:49:32;;;;;;;6.05;3.90;;;17.60;99.90;;;;;;5064933;28;20223;-70
2022/08/30 05:51:58;;;;;;;4.65;4.07;;;17.60;99.90;;;;;;5072136;28;20685;-69
2022/08/30 05:54:25;;;;;;;5.93;4.35;;;17.70;99.90;;;;;;5070238;28;20201;-70
2022/08/30 05:56:52;;;;;;;5.20;3.50;;;17.70;99.90;;;;;;5072617;28;20217;-71
2022/08/30 05:59:20;;;;;;;4.32;3.08;;;17.80;99.90;;;;;;5070777;28;20225;-71
2022/08/30 06:01:47;;;;;;;5.60;3.03;;;17.80;99.90;;;;;;5068372;28;21459;-71
2022/08/30 06:04:14;;;;;;;4.15;3.28;;;17.90;99.90;;;;;;5067011;28;20221;-70
2022/08/30 06:06:43;;;;;;;4.35;3.17;;;17.90;99.90;;;;;;5069369;28;20202;-68
2022/08/30 06:09:11;;;;;;;6.35;2.90;;;18.10;99.90;;;;;;5066454;28;20212;-69
2022/08/30 06:11:38;;;;;;;3.35;2.45;;;18.10;99.90;;;;;;5068862;28;20212;-68
2022/08/30 06:14:05;;;;;;;3.92;2.75;;;18.20;99.90;;;;;;5068120;28;20650;-67
2022/08/30 06:16:34;;;;;;;5.50;3.25;;;18.30;99.90;;;;;;5065141;28;20608;-69
2022/08/30 06:19:02;;;;;;;6.00;2.78;;;18.40;99.90;;;;;;5062591;28;20372;-70
2022/08/30 06:21:32;;;;;;;3.67;2.95;;;18.40;99.90;;;;;;5061822;28;20696;-71
2022/08/30 06:23:59;;;;;;;7.78;3.00;;;18.50;99.90;;;;;;5067855;28;20525;-72
2022/08/30 06:26:27;;;;;;;4.20;2.60;;;18.50;99.90;;;;;;5062615;28;20650;-71
2022/08/30 06:28:54;;;;;;;6.30;3.08;;;18.60;99.90;;;;;;5070796;28;20209;-72
2022/08/30 06:31:23;;;;;;;2.90;2.55;;;18.70;99.90;;;;;;5067684;28;20197;-72
2022/08/30 06:33:52;;;;;;;4.13;2.58;;;18.80;99.90;;;;;;5061073;28;20268;-72
2022/08/30 06:36:21;;;;;;;4.20;2.38;;;18.80;99.90;;;;;;5065322;28;20239;-72
2022/08/30 06:38:50;;;;;;;8.27;2.90;;;18.90;99.90;;;;;;5070647;28;20209;-74
2022/08/30 06:41:19;;;;;;;2.75;2.38;;;18.90;99.90;;;;;;5071022;28;20213;-71
2022/08/30 06:43:47;;;;;;;5.40;2.30;;;18.90;99.90;;;;;;5068818;28;20197;-73
2022/08/30 06:46:16;;;;;;;5.03;2.05;;;18.90;99.90;;;;;;5068244;28;20235;-70
2022/08/30 06:48:43;;;;;;;2.72;2.17;;;18.90;99.90;;;;;;5065806;28;20223;-73
2022/08/30 06:51:11;;;;;;;2.00;1.70;;;18.90;99.90;;;;;;5066871;28;20197;-74
2022/08/30 06:53:38;;;;;;;3.22;2.25;;;19.00;99.90;;;;;;5064574;28;20561;-68
2022/08/30 06:56:07;;;;;;;3.30;1.73;;;19.00;99.90;;;;;;5058912;28;20201;-70
2022/08/30 06:58:36;;;;;;;1.60;1.48;;;19.00;99.90;;;;;;5068800;28;20671;-67
2022/08/30 07:01:04;;;;;;;2.22;1.70;;;19.10;99.90;;;;;;5068417;28;20668;-66
2022/08/30 07:03:30;;;;;;;3.05;1.60;;;19.10;99.90;;;;;;5067011;28;20637;-70
2022/08/30 07:05:57;;;;;;;2.55;1.77;;;19.10;99.90;;;;;;5061642;28;20205;-68
2022/08/30 07:08:27;;;;;;;2.63;2.30;;;19.10;99.90;;;;;;5059559;28;20209;-67
2022/08/30 07:10:54;;;;;;;3.85;1.70;;;19.10;99.90;;;;;;5061918;28;20287;-67
2022/08/30 07:13:22;;;;;;;1.98;1.73;;;19.10;99.90;;;;;;5065382;28;20243;-67
2022/08/30 07:15:50;;;;;;;2.35;2.10;;;19.10;99.90;;;;;;5066962;28;20589;-67
2022/08/30 07:21:07;;;;;;;4.10;1.98;;;19.00;99.90;;;;;;5066978;28;20566;-67
2022/08/30 07:23:36;;;;;;;3.25;2.08;;;19.00;99.90;;;;;;5069696;28;20709;-67
2022/08/30 07:26:04;;;;;;;1.65;1.52;;;19.00;99.90;;;;;;5061541;28;20255;-66
2022/08/30 07:28:31;;;;;;;2.08;1.70;;;19.00;99.90;;;;;;5067397;28;20201;-66
2022/08/30 07:30:59;;;;;;;2.28;1.50;;;19.00;99.90;;;;;;5067094;28;20209;-67
2022/08/30 07:33:26;;;;;;;2.55;1.50;;;19.00;99.90;;;;;;5068405;28;20208;-67
2022/08/30 07:35:52;;;;;;;3.28;1.70;;;19.10;99.90;;;;;;5063058;28;20245;-66
2022/08/30 07:38:19;;;;;;;4.20;1.85;;;19.10;99.90;;;;;;5068855;28;20229;-66
2022/08/30 07:40:47;;;;;;;3.58;2.03;;;19.20;99.90;;;;;;5071559;28;20205;-67
2022/08/30 07:43:14;;;;;;;3.65;2.40;;;19.30;99.90;;;;;;5067901;28;20209;-66
2022/08/30 07:45:41;;;;;;;2.88;2.30;;;19.40;99.90;;;;;;5072427;28;20209;-67
2022/08/30 07:48:10;;;;;;;4.80;2.47;;;19.60;99.90;;;;;;5058865;28;20214;-66
2022/08/30 07:50:37;;;;;;;3.08;2.13;;;19.60;99.90;;;;;;5062211;28;20281;-66
2022/08/30 07:53:04;;;;;;;2.78;2.00;;;19.60;99.90;;;;;;5072056;28;20583;-67
2022/08/30 07:55:31;;;;;;;2.72;2.08;;;19.60;99.90;;;;;;5072988;28;20213;-67
2022/08/30 07:57:59;;;;;;;3.60;2.53;;;19.70;99.90;;;;;;5071781;28;20229;-68
2022/08/30 08:00:26;;;;;;;4.63;2.30;;;19.90;99.90;;;;;;5067341;28;20216;-67
2022/08/30 08:02:53;;;;;;;3.72;2.10;;;20.00;99.90;;;;;;5071477;28;20208;-66
2022/08/30 08:05:20;;;;;;;2.55;1.55;;;20.20;99.90;;;;;;5069054;28;20205;-66
2022/08/30 08:07:47;;;;;;;4.53;1.83;;;20.20;99.90;;;;;;5072203;28;20276;-67
2022/08/30 08:10:14;;;;;;;2.97;2.60;;;20.30;99.90;;;;;;5065247;28;20212;-67
2022/08/30 08:12:41;;;;;;;5.05;2.22;;;20.30;99.90;;;;;;5068472;28;20205;-67
2022/08/30 08:15:11;;;;;;;3.80;1.98;;;20.40;99.90;;;;;;5066456;28;21564;-66
2022/08/30 08:17:37;;;;;;;6.80;1.70;;;20.50;99.90;;;;;;5069450;28;20213;-66
2022/08/30 08:20:05;;;;;;;2.50;1.83;;;20.60;99.90;;;;;;5067816;28;20206;-66
2022/08/30 08:22:32;;;;;;;2.00;1.80;;;20.70;99.90;;;;;;5068774;28;20228;-67
2022/08/30 08:24:59;;;;;;;5.30;4.15;;;20.70;99.90;;;;;;5070138;28;20212;-67
2022/08/30 08:27:25;;;;;;;2.97;2.08;;;20.70;99.90;;;;;;5068014;28;20523;-67
2022/08/30 08:29:52;;;;;;;1.83;1.52;;;20.80;99.90;;;;;;5071215;28;20205;-67
2022/08/30 08:32:20;;;;;;;4.45;1.70;;;20.90;99.90;;;;;;5069354;28;20221;-66
2022/08/30 08:34:47;;;;;;;2.13;1.20;;;20.90;99.90;;;;;;5069328;28;20205;-66
2022/08/30 08:37:14;;;;;;;2.58;1.42;;;20.90;99.90;;;;;;5068631;28;20582;-65
2022/08/30 08:39:40;;;;;;;2.05;1.50;;;20.90;99.90;;;;;;5064767;28;20209;-67
2022/08/30 08:42:16;;;;;;;1.83;1.67;;;20.90;99.90;;;;;;5066066;28;20209;-67
2022/08/30 08:44:51;;;;;;;1.63;1.13;;;20.90;99.90;;;;;;5066364;28;20197;-66
2022/08/30 08:47:28;;;;;;;1.77;1.52;;;21.00;99.90;;;;;;5069397;28;20565;-66
2022/08/30 08:49:59;;;;;;;1.77;1.10;;;20.90;99.90;;;;;;5066370;28;20209;-67
2022/08/30 08:55:18;;;;;;;2.90;1.50;;;20.90;99.90;;;;;;5065111;28;20699;-67
2022/08/30 08:57:45;;;;;;;2.40;1.45;;;20.90;99.90;;;;;;5062332;28;20229;-66
2022/08/30 09:00:14;;;;;;;1.98;1.40;;;21.10;99.90;;;;;;5060140;28;20197;-66
2022/08/30 09:02:44;;;;;;;1.17;1.08;;;21.40;99.90;;;;;;5061034;28;20210;-67
2022/08/30 09:05:14;;;;;;;1.08;0.93;;;21.70;99.90;;;;;;5059872;28;21017;-66
2022/08/30 09:07:47;;;;;;;2.00;1.00;;;21.80;99.90;;;;;;5061486;28;20564;-67
2022/08/30 09:10:14;;;;;;;1.23;0.90;;;21.90;99.90;;;;;;5060012;28;20205;-66
2022/08/30 09:12:43;;;;;;;1.83;1.30;;;22.00;99.90;;;;;;5062317;28;20209;-66
2022/08/30 09:15:17;;;;;;;1.77;0.95;;;21.90;99.90;;;;;;5065550;28;20625;-66
2022/08/30 09:17:57;;;;;;;1.73;1.10;;;21.90;99.90;;;;;;5060664;28;20212;-67
2022/08/30 09:20:27;;;;;;;1.10;1.00;;;21.90;99.90;;;;;;5065065;28;20200;-66
2022/08/30 09:22:53;;;;;;;1.30;1.20;;;21.90;99.90;;;;;;5066889;28;20225;-67
2022/08/30 09:25:24;;;;;;;2.00;0.90;;;22.00;99.90;;;;;;5069831;28;20213;-67
2022/08/30 09:27:54;;;;;;;1.33;0.80;;;22.20;99.90;;;;;;5061258;28;20197;-67
2022/08/30 09:30:23;;;;;;;0.82;0.82;;;22.30;99.90;;;;;;5067864;28;20213;-68
2022/08/30 09:32:52;;;;;;;1.10;0.98;;;22.40;99.90;;;;;;5068381;28;20696;-67
2022/08/30 09:35:22;;;;;;;0.88;0.88;;;22.30;99.90;;;;;;5065545;28;20236;-68
2022/08/30 09:37:53;;;;;;;1.45;0.90;;;22.30;99.90;;;;;;5068670;28;20256;-69
2022/08/30 09:40:31;;;;;;;1.20;0.90;;;22.30;99.90;;;;;;5067097;28;20206;-69
2022/08/30 09:43:08;;;;;;;1.10;1.00;;;22.30;99.90;;;;;;5060465;28;20213;-69
2022/08/30 09:45:39;;;;;;;1.25;1.15;;;22.20;99.90;;;;;;5058779;28;20214;-68
2022/08/30 09:48:31;;;;;;;2.85;1.00;;;22.10;99.90;;;;;;5062930;28;20541;-70
2022/08/30 09:51:24;;;;;;;1.45;0.70;;;22.00;99.90;;;;;;5054971;28;20298;-69
2022/08/30 09:53:58;;;;;;;1.00;0.77;;;22.00;99.90;;;;;;5060775;28;20430;-71
2022/08/30 09:56:30;;;;;;;3.15;0.85;;;21.90;99.90;;;;;;5054144;28;20524;-71
2022/08/30 09:59:08;;;;;;;2.25;1.10;;;21.90;99.90;;;;;;5055678;28;20214;-69
2022/08/30 10:01:39;;;;;;;3.45;1.00;;;21.90;99.90;;;;;;5057218;28;20266;-70
2022/08/30 10:04:15;;;;;;;0.93;0.88;;;21.80;99.90;;;;;;5054960;28;20715;-71
2022/08/30 10:06:49;;;;;;;0.77;0.77;;;21.80;99.90;;;;;;5059943;28;20204;-68
2022/08/30 10:09:25;;;;;;;1.10;0.90;;;21.80;99.90;;;;;;5066995;28;20658;-70
2022/08/30 10:12:01;;;;;;;0.77;0.77;;;21.70;99.90;;;;;;5068904;28;20205;-69
2022/08/30 10:14:48;;;;;;;1.73;1.10;;;21.70;99.90;;;;;;5065648;28;20199;-69
2022/08/30 10:17:24;;;;;;;2.58;1.35;;;21.70;99.90;;;;;;5061497;28;20662;-71
2022/08/30 10:20:06;;;;;;;2.08;1.02;;;21.60;99.90;;;;;;5069778;28;20207;-68
2022/08/30 10:22:40;;;;;;;1.40;1.00;;;21.60;99.90;;;;;;5067189;28;20604;-69
2022/08/30 10:25:11;;;;;;;4.05;0.90;;;21.60;99.90;;;;;;5067903;28;20237;-71
2022/08/30 10:27:43;;;;;;;0.90;0.90;;;21.50;99.90;;;;;;5068561;28;20223;-69
2022/08/30 10:30:13;;;;;;;1.52;1.13;;;21.60;99.90;;;;;;5065525;28;20206;-70
2022/08/30 10:32:49;;;;;;;1.13;1.00;;;21.60;99.90;;;;;;5069629;28;21089;-72
2022/08/30 10:35:20;;;;;;;1.40;0.90;;;21.60;99.90;;;;;;5067859;28;20240;-74
2022/08/30 10:37:53;;;;;;;4.28;1.00;;;21.60;99.90;;;;;;5066672;28;20268;-70
2022/08/30 10:43:20;;;;;;;2.38;1.08;;;21.30;99.90;;;;;;5063417;28;20246;-69
2022/08/30 10:45:50;;;;;;;1.23;0.80;;;21.20;99.90;;;;;;5066227;28;20205;-69
2022/08/30 10:48:23;;;;;;;4.00;1.10;;;21.20;99.90;;;;;;5058187;28;20629;-68
2022/08/30 10:50:52;;;;;;;1.08;0.80;;;21.20;99.90;;;;;;5059438;28;20220;-68
2022/08/30 10:53:28;;;;;;;0.70;0.68;;;21.20;99.90;;;;;;5068175;28;20209;-69
2022/08/30 10:56:03;;;;;;;0.95;0.90;;;21.30;99.90;;;;;;5066101;28;20259;-67
2022/08/30 10:58:31;;;;;;;2.95;1.40;;;21.30;99.90;;;;;;5060663;28;20209;-70
2022/08/30 11:01:15;;;;;;;1.70;1.23;;;21.50;99.90;;;;;;5066255;28;20675;-69
2022/08/30 11:04:02;;;;;;;1.25;0.75;;;21.50;99.90;;;;;;5058313;28;20205;-67
2022/08/30 11:06:40;;;;;;;1.42;0.98;;;21.50;99.90;;;;;;5051406;28;20197;-70
2022/08/30 11:09:23;;;;;;;1.67;1.00;;;21.40;99.90;;;;;;5060180;28;20539;-68
2022/08/30 11:12:07;;;;;;;1.33;1.10;;;21.30;99.90;;;;;;5064202;28;20324;-66
2022/08/30 11:14:38;;;;;;;1.10;0.80;;;21.20;99.90;;;;;;5066520;28;20548;-67
2022/08/30 11:17:05;;;;;;;3.33;1.20;;;21.10;99.90;;;;;;5070319;28;20209;-66
2022/08/30 11:19:39;;;;;;;0.70;0.70;;;21.10;99.90;;;;;;5057682;28;20234;-67
2022/08/30 11:22:13;;;;;;;1.45;0.65;;;21.00;99.90;;;;;;5067291;28;20248;-67
2022/08/30 11:25:00;;;;;;;2.92;0.93;;;21.00;99.90;;;;;;5062225;28;20204;-67
2022/08/30 11:27:41;;;;;;;0.70;0.70;;;21.10;99.90;;;;;;5068280;28;20197;-67
2022/08/30 11:30:48;;;;;;;0.80;0.60;;;21.10;99.90;;;;;;5064590;28;20206;-67
2022/08/30 11:33:44;;;;;;;1.73;0.80;;;21.20;99.90;;;;;;5020382;28;20202;-69
2022/08/30 11:36:11;;;;;;;1.83;0.68;;;21.30;99.90;;;;;;5056483;28;20230;-68
2022/08/30 11:38:57;;;;;;;1.77;0.70;;;21.50;99.90;;;;;;5066382;28;20224;-67
2022/08/30 11:41:33;;;;;;;0.73;0.63;;;21.70;99.90;;;;;;5062117;28;20656;-67
2022/08/30 11:44:26;;;;;;;0.50;0.50;;;21.80;99.90;;;;;;5064781;28;20293;-72
2022/08/30 11:46:53;;;;;;;1.75;0.75;;;21.90;99.90;;;;;;5069815;28;20235;-70
2022/08/30 11:49:51;;;;;;;2.85;0.63;;;22.00;99.90;;;;;;5067435;28;20236;-70
2022/08/30 11:52:34;;;;;;;0.55;0.55;;;22.10;99.90;;;;;;5065881;28;20205;-69
2022/08/30 11:55:37;;;;;;;3.38;0.95;;;22.10;99.90;;;;;;5065647;28;20662;-69
2022/08/30 11:58:24;;;;;;;0.50;0.50;;;22.20;99.90;;;;;;5067088;28;20208;-68
2022/08/30 12:01:28;;;;;;;1.17;0.50;;;22.20;99.90;;;;;;5062948;28;20579;-68
2022/08/30 12:03:58;;;;;;;0.82;0.47;;;22.30;99.90;;;;;;5067003;28;20208;-68
2022/08/30 12:06:50;;;;;;;1.15;0.50;;;22.30;99.90;;;;;;5059813;28;20202;-68
2022/08/30 12:10:03;;;;;;;1.58;0.73;;;22.40;99.90;;;;;;5061856;28;20194;-70
2022/08/30 12:12:53;;;;;;;0.85;0.75;;;22.50;99.90;;;;;;5041047;28;20698;-70
2022/08/30 12:15:55;;;;;;;0.40;0.40;;;22.50;99.90;;;;;;5058963;28;20642;-73
2022/08/30 12:18:29;;;;;;;2.42;2.08;;;22.50;99.90;;;;;;5062149;28;20213;-71
2022/08/30 12:21:01;;;;;;;0.95;0.80;;;22.60;99.90;;;;;;5063989;28;20202;-68
2022/08/30 12:23:36;;;;;;;1.35;0.70;;;22.60;99.90;;;;;;5060263;28;20233;-69
2022/08/30 12:26:19;;;;;;;1.27;0.60;;;22.60;99.90;;;;;;5067108;28;20197;-69
2022/08/30 12:28:49;;;;;;;0.43;0.43;;;22.70;99.90;;;;;;5068969;28;20549;-76
2022/08/30 12:31:20;;;;;;;0.70;0.70;;;22.70;99.90;;;;;;5070566;28;20205;-69
2022/08/30 12:33:49;;;;;;;0.70;0.70;;;22.70;99.90;;;;;;5072349;28;20288;-68
2022/08/30 12:36:32;;;;;;;1.45;0.70;;;22.90;99.90;;;;;;5071112;28;20693;-64
2022/08/30 12:39:12;;;;;;;0.45;0.45;;;23.00;99.90;;;;;;5058535;28;20585;-69
2022/08/30 12:41:40;;;;;;;4.00;0.93;;;23.10;99.90;;;;;;5071330;28;20209;-69
2022/08/30 12:44:10;;;;;;;0.52;0.50;;;23.10;99.90;;;;;;5065327;28;20267;-69
2022/08/30 12:46:38;;;;;;;0.63;0.57;;;23.00;99.90;;;;;;5061213;28;20205;-73
2022/08/30 12:49:05;;;;;;;0.75;0.60;;;23.10;99.90;;;;;;5063080;28;20228;-70
2022/08/30 12:51:38;;;;;;;0.82;0.50;;;23.10;99.90;;;;;;5054449;28;20205;-70
2022/08/30 12:54:17;;;;;;;1.92;0.50;;;23.00;99.90;;;;;;5067232;28;20673;-69
2022/08/30 12:56:57;;;;;;;1.13;0.40;;;22.90;99.90;;;;;;5063540;28;20209;-69
2022/08/30 12:59:46;;;;;;;0.50;0.50;;;22.90;99.90;;;;;;5067370;28;20221;-68
2022/08/30 13:02:17;;;;;;;0.73;0.50;;;22.80;99.90;;;;;;5058483;28;20201;-70
2022/08/30 13:04:46;;;;;;;1.80;0.65;;;22.70;99.90;;;;;;5055826;28;20205;-70
2022/08/30 13:07:25;;;;;;;1.52;0.57;;;22.60;99.90;;;;;;5060828;28;20201;-70
2022/08/30 13:10:08;;;;;;;1.67;0.90;;;22.50;99.90;;;;;;5060822;28;20240;-69
2022/08/30 13:12:37;;;;;;;0.88;0.70;;;22.40;99.90;;;;;;5061966;28;20209;-71
2022/08/30 13:15:18;;;;;;;0.82;0.60;;;22.30;99.90;;;;;;5055958;28;20213;-69